ノヴォシビルスク の空港の天気 - METARとTAF

トルマチェヴォ空港(ノヴォシビルスク) ( UNNT / OVB ) - ロシア ノヴォシビルスク
飛行場実況気象(Metar)
観測時間03/27 20:00 +06 (03/27 14:00 UTC)
風向・風速南西 4m/s
視程10km以上
天気現象
少しの雲 雲底高度 340m
全天の4割程度の雲 雲底高度 910m
気温0℃
湿度86%
気圧1019hPa
METARUNNT 271400Z 23004MPS 9999 FEW011 SCT030 00/M02 Q1019 R25/190060 R34/190060 NOSIG RMK QFE754/1006
過去の天気等 Google飛行場航空写真 Wunderground天気予報

過去48時間のMETAR

飛行場予報(TAF)
発表時間: 3/27 17:00 +06 (3/27 11:00 UTC)
予報対象時間: 27日18時 +06 ~ 28日18時 +06
風向・風速西南西 6m/s 瞬間風速 12m/s
視程10km以上
全天の8割程度の積乱雲 雲底高度 460m
27日18時 +06 ~ 28日3時 +06 に一時的に
視程1,500m
天気現象しゅう雪雨 もや
全天の8割程度の雲 雲底高度 150m
全天の8割程度の積乱雲 雲底高度 300m
27日21時 +06 ~ 27日23時 +06 に徐々に
風向・風速南南西 6m/s 瞬間風速 12m/s
TAF UNNT 271100Z 2712/2812 25006G12MPS 9999 BKN015CB
TEMPO 2712/2721 1500 SHSNRA BR BKN005 BKN010CB
BECMG 2715/2717 20006G12MPS